Thursday, August 25, 2016
04:33 UTC
  |  Log In   |  Register Free
Airport Search:

Modesto City-Co-Harry Sham Fld Airport
(KMOD)

FAA data valid effective Jul 21 2016 - Sep 15 2016 (unless otherwise noted).

 
 
 
 
 
 
 
 
 
 
 
 
 
 
Current Aviation Weather for KMOD

Weather Summary


The most recent METAR observation for MOD was updated at: 12:53 UTC
METAR for MOD is not available. Closest METAR is for
METAR

METAR KMOD 250353Z 33007KT 10SM CLR 28/12 A2989 RMK AO2 SLP122 T02780117

METAR KMOD 250253Z 31007KT 10SM CLR 29/11 A2989 RMK AO2 SLP120 T02940111 55006

METAR KMOD 250153Z 33009KT 10SM CLR 32/09 A2988 RMK AO2 SLP119 T03220089

METAR KCPU METAR not available

METAR KMCE 250353Z 33007KT 10SM CLR 26/12 A2988 RMK AO2 SLP118 T02610117 TSNO

METAR KMER 250415Z 35008KT 10SM CLR 24/12 A2990 RMK AO1

TAF for MOD is not available.
TAF

KSCK - TAF KSCK 242328Z 2500/2524 30010KT P6SM SKC

KSCK - FM250600 32005KT P6SM SKC =

KMER - TAF KMER 242320Z 2500/2524 34008KT P6SM SKC =

KMCE - TAF KMCE 242320Z 2500/2524 31008KT P6SM SKC =

GlobalAir.com is loading additional information.
 Current Weather at MOD
85.0 F° (29.4 C°)

Northwest winds at 8.1 mph
Pressure:
29.89 in
Humidity:
32%
Wind:
Northwest at 8.1 mph
Dew Point:
52.0 F° (11.1 C°)
Visibility:
10.00 mi
MOD NOAA Radar




Find All Airport Services Find A Hotel Find A Rental Car Find A Golf Course Find A Restaurant $100 Hamburger



Airport Weather Forecast for KMOD

Translated METAR for KMOD (0353 UTC)
METAR:
KMOD 250353Z AUTO Modesto City-Co, Modesto, CA (KMOD). Aug 25, 0353Z, Automated. Wind from 330° at 7 knots, 10 statute miles visibility, Clear Skies, Temperature 28°C, Dewpoint 12°C, Altimeter is 29.89. Remarks: automated station with precipitation discriminator sea level pressure 1012.2 hectopascals hourly temp 27.8°C dewpoint 11.7°C
Conditions at:
KMOD (Modesto City-Co-Harry Sham Fld, CA) observed 0353 UTC 25 August 2016
Temperature:
85.0 F° (29.4 C°)
Dewpoint:
not reported - refer to area weather report
Pressure:
29.89 Hg
Winds:
not reported
Visibility:
10.00
Ceiling:
at least 12,000 feet AGL
Clouds:
not reported - refer to area weather report
Remarks:
site is un-manned

Translated TAF for TAF for MOD is not available. Refer to local area forecast.
FBO's on the Field
FBO Company Facility Photos Services Transportation Aviation Fuel Prices: Prices include tax
Catering Weather Repair Courtesy Rental Type 100LL JetA JetA+ MOGAS 8087
 
Sky Trek Aviation

This FBO has not yet been rated
FS:Avfuel
Last Updated: Aug-17
Login to update fuel prices
SS:
Contact Sky Trek AviationMore FBO Information
 
Add another FBO Facility Photos Catering Weather Repair Courtesy Rental Type 100LL JetA JetA+ MOGAS 8087
Services Transportation Aviation Fuel Prices: Prices include tax


model-print
model-print
model-print
model-print